createdAt,value
2022-11-15T00:02:40.209Z,99782.91
2022-11-15T00:05:28.637Z,99778.59
2022-11-15T00:08:15.885Z,99784.69
2022-11-15T00:11:05.125Z,99786.47
2022-11-15T00:13:52.098Z,99782.16
2022-11-15T00:16:39.495Z,99776.22
2022-11-15T00:19:26.160Z,99772.78
2022-11-15T00:22:14.645Z,99771.91
2022-11-15T00:25:01.578Z,99776.22
2022-11-15T00:27:48.728Z,99778.75
2022-11-15T00:30:35.718Z,99765.03
2022-11-15T00:33:22.480Z,99760.75
2022-11-15T00:36:11.745Z,99774.41
2022-11-15T00:38:59.800Z,99777.94
2022-11-15T00:41:46.539Z,99768.47
2022-11-15T00:44:33.705Z,99764.22
2022-11-15T00:47:21.086Z,99752.16
2022-11-15T00:50:11.695Z,99759.88
2022-11-15T00:53:01.194Z,99759.03
2022-11-15T00:55:49.419Z,99765.50
2022-11-15T00:58:36.118Z,99760.09
2022-11-15T01:01:23.530Z,99752.22
2022-11-15T01:04:10.807Z,99752.91
2022-11-15T01:06:57.931Z,99745.75
2022-11-15T01:09:45.148Z,99745.69
2022-11-15T01:12:34.038Z,99737.75
2022-11-15T01:15:21.208Z,99742.16
2022-11-15T01:18:08.261Z,99739.56
2022-11-15T01:20:55.154Z,99738.72
2022-11-15T01:23:42.193Z,99730.00
2022-11-15T01:26:29.505Z,99736.75
2022-11-15T01:29:18.235Z,99729.72
2022-11-15T01:32:05.671Z,99734.91
2022-11-15T01:34:52.889Z,99733.59
2022-11-15T01:37:39.936Z,99727.84
2022-11-15T01:40:26.950Z,99735.88
2022-11-15T01:43:26.468Z,99742.91
2022-11-15T01:46:29.948Z,99729.16
2022-11-15T01:49:20.598Z,99735.25
2022-11-15T01:52:12.879Z,99731.00
2022-11-15T01:55:08.763Z,99723.19
2022-11-15T01:58:00.598Z,99715.44
2022-11-15T02:00:48.811Z,99719.72
2022-11-15T02:03:44.560Z,99719.75
2022-11-15T02:06:31.682Z,99717.13
2022-11-15T02:09:20.134Z,99717.13
2022-11-15T02:12:09.327Z,99713.63
2022-11-15T02:14:58.343Z,99703.28
2022-11-15T02:18:12.638Z,99697.25
2022-11-15T02:21:28.574Z,99686.81
2022-11-15T02:25:03.719Z,99692.84
2022-11-15T02:28:43.321Z,99685.06
2022-11-15T02:31:38.882Z,99670.31
2022-11-15T02:34:37.151Z,99676.34
2022-11-15T02:37:34.235Z,99664.25
2022-11-15T02:40:33.285Z,99660.78
2022-11-15T02:43:44.784Z,99664.19
2022-11-15T02:46:58.475Z,99658.22
2022-11-15T02:49:50.401Z,99666.00
2022-11-15T02:52:37.402Z,99664.34
2022-11-15T02:55:30.891Z,99658.25
2022-11-15T02:58:50.622Z,99664.25
2022-11-15T03:01:54.887Z,99662.53
2022-11-15T03:04:50.325Z,99660.84
2022-11-15T03:07:45.129Z,99653.19
2022-11-15T03:10:44.635Z,99651.59
2022-11-15T03:13:40.121Z,99648.19
2022-11-15T03:16:36.127Z,99649.94
2022-11-15T03:19:34.370Z,99646.50
2022-11-15T03:22:26.675Z,99639.66
2022-11-15T03:25:23.206Z,99646.63
2022-11-15T03:28:15.129Z,99645.81
2022-11-15T03:31:27.373Z,99648.47
2022-11-15T03:34:27.683Z,99655.34
2022-11-15T03:37:17.859Z,99656.28
2022-11-15T03:40:07.126Z,99660.59
2022-11-15T03:43:04.180Z,99659.75
2022-11-15T03:45:58.148Z,99656.31
2022-11-15T03:48:53.040Z,99651.19
2022-11-15T03:51:42.026Z,99647.75
2022-11-15T03:54:29.078Z,99651.22
2022-11-15T03:57:15.867Z,99645.25
2022-11-15T04:00:02.901Z,99659.00
2022-11-15T04:02:50.046Z,99650.34
2022-11-15T04:05:36.820Z,99661.53
2022-11-15T04:08:25.253Z,99661.50
2022-11-15T04:11:12.265Z,99658.88
2022-11-15T04:13:59.240Z,99661.44
2022-11-15T04:16:46.252Z,99658.81
2022-11-15T04:19:50.843Z,99660.56
2022-11-15T04:22:55.649Z,99660.44
2022-11-15T04:25:44.969Z,99656.09
2022-11-15T04:28:31.894Z,99654.31
2022-11-15T04:31:26.839Z,99651.69
2022-11-15T04:34:13.668Z,99655.06
2022-11-15T04:37:17.159Z,99636.91
2022-11-15T04:40:04.626Z,99634.31
2022-11-15T04:42:51.813Z,99635.16
2022-11-15T04:45:38.762Z,99624.78
2022-11-15T04:48:27.269Z,99633.41
2022-11-15T04:51:14.096Z,99623.84
2022-11-15T04:54:01.009Z,99627.28
2022-11-15T04:56:47.957Z,99623.84
2022-11-15T04:59:34.979Z,99623.84
2022-11-15T05:02:21.817Z,99615.19
2022-11-15T05:05:15.244Z,99625.59
2022-11-15T05:08:01.920Z,99613.59
2022-11-15T05:10:50.355Z,99621.28
2022-11-15T05:13:37.120Z,99622.19
2022-11-15T05:16:24.391Z,99610.97
2022-11-15T05:19:11.456Z,99613.59
2022-11-15T05:21:59.577Z,99602.28
2022-11-15T05:24:46.324Z,99609.25
2022-11-15T05:27:33.844Z,99604.19
2022-11-15T05:30:21.111Z,99613.78
2022-11-15T05:33:07.889Z,99606.88
2022-11-15T05:36:02.599Z,99601.66
2022-11-15T05:38:51.570Z,99599.06
2022-11-15T05:41:43.171Z,99593.06
2022-11-15T05:44:30.541Z,99604.38
2022-11-15T05:47:23.778Z,99605.22
2022-11-15T05:50:15.147Z,99602.75
2022-11-15T05:53:05.314Z,99600.16
2022-11-15T05:55:53.962Z,99592.47
2022-11-15T05:58:40.767Z,99585.56
2022-11-15T06:01:29.302Z,99583.88
2022-11-15T06:04:16.245Z,99588.06
2022-11-15T06:07:03.368Z,99584.56
2022-11-15T06:09:50.474Z,99579.38
2022-11-15T06:12:38.752Z,99584.56
2022-11-15T06:15:25.528Z,99592.28
2022-11-15T06:18:12.702Z,99592.25
2022-11-15T06:21:01.972Z,99595.66
2022-11-15T06:23:49.023Z,99591.28
2022-11-15T06:26:35.897Z,99586.91
2022-11-15T06:29:24.457Z,99587.72
2022-11-15T06:32:11.308Z,99592.84
2022-11-15T06:34:58.362Z,99586.72
2022-11-15T06:37:45.636Z,99592.69
2022-11-15T06:40:32.524Z,99608.13
2022-11-15T06:43:19.652Z,99594.31
2022-11-15T06:46:08.726Z,99606.31
2022-11-15T06:48:56.252Z,99598.53
2022-11-15T06:51:42.904Z,99606.25
2022-11-15T06:54:29.771Z,99606.22
2022-11-15T06:57:16.799Z,99599.28
2022-11-15T07:00:05.289Z,99594.94
2022-11-15T07:02:53.779Z,99606.09
2022-11-15T07:05:40.933Z,99599.97
2022-11-15T07:08:30.614Z,99598.16
2022-11-15T07:11:17.693Z,99596.41
2022-11-15T07:14:04.416Z,99605.13
2022-11-15T07:16:51.551Z,99613.66
2022-11-15T07:19:39.988Z,99614.50
2022-11-15T07:22:26.884Z,99616.19
2022-11-15T07:25:13.959Z,99611.06
2022-11-15T07:28:02.201Z,99615.22
2022-11-15T07:30:49.042Z,99615.97
2022-11-15T07:33:36.934Z,99618.44
2022-11-15T07:36:25.412Z,99612.50
2022-11-15T07:39:13.122Z,99607.25
2022-11-15T07:42:13.910Z,99605.22
2022-11-15T07:45:01.015Z,99603.53
2022-11-15T07:47:48.214Z,99600.94
2022-11-15T07:50:35.580Z,99601.91
2022-11-15T07:53:23.895Z,99606.13
2022-11-15T07:56:11.107Z,99606.97
2022-11-15T07:58:58.508Z,99606.13
2022-11-15T08:01:45.545Z,99602.59
2022-11-15T08:04:32.359Z,99607.94
2022-11-15T08:07:19.569Z,99610.38
2022-11-15T08:10:09.956Z,99599.94
2022-11-15T08:13:04.346Z,99600.78
2022-11-15T08:15:57.395Z,99610.19
2022-11-15T08:18:44.953Z,99611.81
2022-11-15T08:21:31.907Z,99609.03
2022-11-15T08:24:18.979Z,99611.47
2022-11-15T08:27:15.931Z,99611.34
2022-11-15T08:30:03.700Z,99613.84
2022-11-15T08:32:51.279Z,99614.63
2022-11-15T08:35:38.259Z,99618.84
2022-11-15T08:38:25.367Z,99610.88
2022-11-15T08:41:27.620Z,99609.66
2022-11-15T08:44:16.213Z,99607.84
2022-11-15T08:47:02.975Z,99605.28
2022-11-15T08:49:50.117Z,99606.00
2022-11-15T08:52:36.939Z,99603.41
2022-11-15T08:55:24.978Z,99590.66
2022-11-15T08:58:12.285Z,99602.50
2022-11-15T09:01:00.923Z,99596.31
2022-11-15T09:03:48.373Z,99597.00
2022-11-15T09:06:36.315Z,99595.00
2022-11-15T09:09:25.712Z,99595.59
2022-11-15T09:12:12.707Z,99598.81
2022-11-15T09:15:00.065Z,99597.09
2022-11-15T09:17:48.271Z,99594.13
2022-11-15T09:20:35.342Z,99593.06
2022-11-15T09:23:22.097Z,99582.41
2022-11-15T09:26:09.343Z,99592.63
2022-11-15T09:28:56.219Z,99596.06
2022-11-15T09:31:43.788Z,99590.53
2022-11-15T09:34:31.881Z,99585.13
2022-11-15T09:37:19.074Z,99594.44
2022-11-15T09:40:07.100Z,99586.34
2022-11-15T09:43:24.290Z,99586.53
2022-11-15T09:46:17.988Z,99587.53
2022-11-15T09:49:05.580Z,99581.59
2022-11-15T09:51:37.638Z,99577.91
2022-11-15T09:57:16.076Z,99572.56
2022-11-15T10:03:14.019Z,99570.38
2022-11-15T10:05:45.066Z,99549.97
2022-11-15T10:08:31.300Z,99556.19
2022-11-15T10:11:35.587Z,99556.56
2022-11-15T10:13:53.241Z,99548.88
2022-11-15T10:17:10.646Z,99549.31
2022-11-15T10:19:54.644Z,99545.09
2022-11-15T10:22:42.634Z,99530.81
2022-11-15T10:25:34.760Z,99531.47
2022-11-15T10:28:13.514Z,99527.63
2022-11-15T10:30:45.345Z,99519.81
2022-11-15T10:33:28.740Z,99525.97
2022-11-15T10:36:25.666Z,99522.44
2022-11-15T10:38:57.930Z,99511.91
2022-11-15T10:41:38.382Z,99522.34
2022-11-15T10:44:23.984Z,99528.44
2022-11-15T10:47:26.443Z,99514.34
2022-11-15T10:50:05.393Z,99512.13
2022-11-15T10:52:39.177Z,99515.47
2022-11-15T10:55:26.491Z,99510.66
2022-11-15T10:58:06.174Z,99506.91
2022-11-15T11:00:43.337Z,99504.53
2022-11-15T11:03:30.803Z,99494.63
2022-11-15T11:06:12.851Z,99492.34
2022-11-15T11:08:42.299Z,99473.50
2022-11-15T11:11:11.245Z,99478.91
2022-11-15T11:13:42.166Z,99465.00
2022-11-15T11:16:46.120Z,99472.28
2022-11-15T11:19:48.979Z,99469.03
2022-11-15T11:22:29.298Z,99466.13
2022-11-15T11:25:10.617Z,99461.13
2022-11-15T11:27:48.009Z,99448.97
2022-11-15T11:30:24.066Z,99458.44
2022-11-15T11:33:08.041Z,99445.94
2022-11-15T11:35:47.643Z,99448.28
2022-11-15T11:38:43.156Z,99451.25
2022-11-15T11:41:22.803Z,99439.63
2022-11-15T11:44:03.468Z,99429.13
2022-11-15T11:46:57.465Z,99419.16
2022-11-15T11:49:36.174Z,99429.47
2022-11-15T11:52:12.223Z,99424.72
2022-11-15T11:54:56.174Z,99427.25
2022-11-15T11:57:36.764Z,99423.81
2022-11-15T12:00:16.803Z,99415.06
2022-11-15T12:02:55.713Z,99418.69
2022-11-15T12:05:31.218Z,99406.56
2022-11-15T12:08:28.227Z,99400.31
2022-11-15T12:11:10.787Z,99398.41
2022-11-15T12:13:40.592Z,99398.50
2022-11-15T12:16:17.112Z,99388.13
2022-11-15T12:18:51.941Z,99386.34
2022-11-15T12:21:34.418Z,99388.69
2022-11-15T12:24:07.171Z,99377.88
2022-11-15T12:26:41.673Z,99380.06
2022-11-15T12:29:18.253Z,99375.59
2022-11-15T12:31:52.022Z,99364.72
2022-11-15T12:34:45.964Z,99363.44
2022-11-15T12:37:56.410Z,99358.31
2022-11-15T12:40:38.064Z,99344.97
2022-11-15T12:43:39.024Z,99358.34
2022-11-15T12:46:13.979Z,99357.66
2022-11-15T12:48:55.906Z,99357.91
2022-11-15T12:52:08.171Z,99357.88
2022-11-15T12:55:06.286Z,99357.06
2022-11-15T12:57:44.511Z,99354.69
2022-11-15T13:00:49.492Z,99339.16
2022-11-15T13:03:31.119Z,99340.84
2022-11-15T13:06:10.145Z,99339.22
2022-11-15T13:08:49.363Z,99334.91
2022-11-15T13:12:01.678Z,99321.06
2022-11-15T13:14:52.590Z,99326.16
2022-11-15T13:17:37.246Z,99320.09
2022-11-15T13:20:32.456Z,99318.66
2022-11-15T13:23:11.866Z,99319.75
2022-11-15T13:26:10.435Z,99320.47
2022-11-15T13:28:45.362Z,99315.97
2022-11-15T13:31:35.814Z,99314.06
2022-11-15T13:34:44.623Z,99308.94
2022-11-15T13:37:12.095Z,99296.16
2022-11-15T13:40:01.623Z,99283.44
2022-11-15T13:42:33.699Z,99292.75
2022-11-15T13:45:11.621Z,99279.47
2022-11-15T13:47:40.196Z,99286.59
2022-11-15T13:50:13.263Z,99286.81
2022-11-15T13:52:46.603Z,99285.88
2022-11-15T13:55:18.060Z,99276.31
2022-11-15T13:57:51.814Z,99273.81
2022-11-15T14:00:45.313Z,99263.38
2022-11-15T14:03:21.859Z,99277.47
2022-11-15T14:06:08.577Z,99268.78
2022-11-15T14:08:37.974Z,99268.00
2022-11-15T14:11:19.214Z,99253.38
2022-11-15T14:14:23.246Z,99250.00
2022-11-15T14:16:55.173Z,99250.84
2022-11-15T14:19:41.588Z,99246.63
2022-11-15T14:22:18.857Z,99242.22
2022-11-15T14:25:05.194Z,99246.59
2022-11-15T14:27:34.077Z,99244.03
2022-11-15T14:30:06.629Z,99245.84
2022-11-15T14:32:48.892Z,99240.66
2022-11-15T14:35:23.669Z,99242.34
2022-11-15T14:37:52.511Z,99236.41
2022-11-15T14:40:23.665Z,99224.31
2022-11-15T14:42:52.512Z,99219.28
2022-11-15T14:45:25.141Z,99214.88
2022-11-15T14:47:53.521Z,99206.19
2022-11-15T14:50:23.969Z,99207.91
2022-11-15T14:52:54.975Z,99201.00
2022-11-15T14:55:26.321Z,99196.88
2022-11-15T14:57:54.721Z,99191.00
2022-11-15T15:00:42.078Z,99190.19
2022-11-15T15:03:13.995Z,99199.63
2022-11-15T15:05:44.782Z,99179.88
2022-11-15T15:08:13.572Z,99179.16
2022-11-15T15:10:44.706Z,99177.47
2022-11-15T15:13:20.670Z,99172.41
2022-11-15T15:15:52.371Z,99163.03
2022-11-15T15:18:21.549Z,99155.69
2022-11-15T15:20:57.487Z,99149.00
2022-11-15T15:23:28.003Z,99139.78
2022-11-15T15:25:56.437Z,99144.03
2022-11-15T15:28:27.583Z,99144.03
2022-11-15T15:30:59.732Z,99144.03
2022-11-15T15:33:28.240Z,99138.09
2022-11-15T15:35:56.618Z,99132.94
2022-11-15T15:38:25.013Z,99130.44
2022-11-15T15:40:53.422Z,99126.06
2022-11-15T15:43:21.796Z,99122.59
2022-11-15T15:45:50.131Z,99123.44
2022-11-15T15:48:19.889Z,99126.91
2022-11-15T15:50:48.366Z,99122.72
2022-11-15T15:53:16.749Z,99114.81
2022-11-15T15:55:45.236Z,99111.53
2022-11-15T15:58:13.579Z,99101.25
2022-11-15T16:00:41.982Z,99103.78
2022-11-15T16:03:10.424Z,99106.28
2022-11-15T16:05:43.272Z,99101.09
2022-11-15T16:08:20.519Z,99100.25
2022-11-15T16:10:49.563Z,99094.28
2022-11-15T16:13:18.614Z,99094.91
2022-11-15T16:15:49.793Z,99100.16
2022-11-15T16:18:20.364Z,99097.50
2022-11-15T16:20:53.113Z,99086.25
2022-11-15T16:23:24.637Z,99083.69
2022-11-15T16:25:56.361Z,99092.44
2022-11-15T16:28:27.189Z,99083.69
2022-11-15T16:31:06.882Z,99080.28
2022-11-15T16:33:50.551Z,99090.72
2022-11-15T16:36:30.010Z,99085.50
2022-11-15T16:39:00.101Z,99087.22
2022-11-15T16:41:28.756Z,99080.41
2022-11-15T16:43:57.134Z,99085.50
2022-11-15T16:46:28.012Z,99080.28
2022-11-15T16:48:56.941Z,99077.94
2022-11-15T16:51:26.780Z,99082.22
2022-11-15T16:53:55.223Z,99077.00
2022-11-15T16:56:28.483Z,99080.53
2022-11-15T16:58:58.694Z,99074.59
2022-11-15T17:01:29.888Z,99070.34
2022-11-15T17:03:58.738Z,99071.28
2022-11-15T17:06:28.827Z,99066.09
2022-11-15T17:08:57.230Z,99063.53
2022-11-15T17:11:25.544Z,99060.19
2022-11-15T17:13:59.796Z,99056.66
2022-11-15T17:16:28.305Z,99048.00
2022-11-15T17:18:57.213Z,99044.69
2022-11-15T17:21:33.370Z,99046.59
2022-11-15T17:24:02.239Z,99041.31
2022-11-15T17:26:34.002Z,99037.16
2022-11-15T17:29:07.839Z,99044.09
2022-11-15T17:31:37.782Z,99043.31
2022-11-15T17:34:07.943Z,99038.91
2022-11-15T17:36:37.741Z,99034.53
2022-11-15T17:39:06.898Z,99029.34
2022-11-15T17:41:35.388Z,99024.25
2022-11-15T17:44:04.325Z,99024.31
2022-11-15T17:46:34.099Z,99014.00
2022-11-15T17:49:02.664Z,99014.09
2022-11-15T17:51:31.257Z,99010.53
2022-11-15T17:54:01.097Z,99017.28
2022-11-15T17:56:31.542Z,99019.09
2022-11-15T17:59:02.069Z,99010.53
2022-11-15T18:01:32.396Z,99006.03
2022-11-15T18:04:02.561Z,99008.81
2022-11-15T18:06:33.571Z,98997.63
2022-11-15T18:09:05.148Z,98998.41
2022-11-15T18:11:38.357Z,99000.00
2022-11-15T18:14:11.843Z,99005.19
2022-11-15T18:16:40.311Z,98993.94
2022-11-15T18:19:13.373Z,98989.59
2022-11-15T18:22:00.010Z,98987.88
2022-11-15T18:24:33.499Z,98980.25
2022-11-15T18:27:03.536Z,98979.47
2022-11-15T18:29:33.359Z,98978.66
2022-11-15T18:32:05.077Z,98978.50
2022-11-15T18:34:34.279Z,98972.56
2022-11-15T18:37:03.464Z,98967.31
2022-11-15T18:39:33.814Z,98974.09
2022-11-15T18:42:02.658Z,98970.75
2022-11-15T18:44:31.760Z,98979.19
2022-11-15T18:47:00.152Z,98976.50
2022-11-15T18:49:28.580Z,98976.47
2022-11-15T18:51:57.130Z,98979.06
2022-11-15T18:54:30.648Z,98976.47
2022-11-15T18:57:01.730Z,98972.09
2022-11-15T18:59:31.097Z,98968.03
2022-11-15T19:01:59.667Z,98962.81
2022-11-15T19:04:28.350Z,98952.78
2022-11-15T19:06:56.773Z,98946.25
2022-11-15T19:09:32.047Z,98951.09
2022-11-15T19:12:01.893Z,98948.66
2022-11-15T19:14:30.270Z,98940.16
2022-11-15T19:16:59.172Z,98943.69
2022-11-15T19:19:30.040Z,98943.69
2022-11-15T19:21:58.641Z,98944.53
2022-11-15T19:24:27.628Z,98942.00
2022-11-15T19:26:56.007Z,98938.59
2022-11-15T19:29:25.848Z,98935.09
2022-11-15T19:31:54.301Z,98942.75
2022-11-15T19:34:22.770Z,98948.03
2022-11-15T19:36:51.248Z,98938.72
2022-11-15T19:39:19.677Z,98936.00
2022-11-15T19:41:48.319Z,98932.56
2022-11-15T19:44:16.786Z,98935.19
2022-11-15T19:46:46.528Z,98931.72
2022-11-15T19:49:14.957Z,98929.88
2022-11-15T19:51:45.214Z,98929.16
2022-11-15T19:54:13.803Z,98928.19
2022-11-15T19:56:42.180Z,98931.59
2022-11-15T19:59:11.910Z,98925.47
2022-11-15T20:01:40.565Z,98929.88
2022-11-15T20:04:10.966Z,98917.06
2022-11-15T20:06:41.961Z,98917.84
2022-11-15T20:09:14.464Z,98919.47
2022-11-15T20:11:43.228Z,98907.50
2022-11-15T20:14:13.042Z,98905.72
2022-11-15T20:16:41.813Z,98911.88
2022-11-15T20:19:12.554Z,98911.88
2022-11-15T20:21:41.278Z,98905.78
2022-11-15T20:24:10.109Z,98904.09
2022-11-15T20:26:39.318Z,98905.91
2022-11-15T20:29:09.961Z,98900.66
2022-11-15T20:31:38.592Z,98901.50
2022-11-15T20:34:07.307Z,98899.03
2022-11-15T20:36:37.159Z,98897.56
2022-11-15T20:39:05.601Z,98888.97
2022-11-15T20:41:34.061Z,98891.69
2022-11-15T20:44:03.692Z,98894.19
2022-11-15T20:46:32.205Z,98899.38
2022-11-15T20:49:00.852Z,98888.97
2022-11-15T20:51:29.237Z,98887.25
2022-11-15T20:53:58.996Z,98883.94
2022-11-15T20:56:27.430Z,98878.97
2022-11-15T20:58:56.619Z,98873.72
2022-11-15T21:01:25.598Z,98868.56
2022-11-15T21:03:55.329Z,98872.97
2022-11-15T21:06:25.562Z,98869.66
2022-11-15T21:09:12.962Z,98863.53
2022-11-15T21:12:06.305Z,98867.06
2022-11-15T21:14:34.839Z,98860.94
2022-11-15T21:17:03.410Z,98865.38
2022-11-15T21:19:36.857Z,98853.41
2022-11-15T21:22:10.089Z,98855.06
2022-11-15T21:24:38.599Z,98851.59
2022-11-15T21:27:10.037Z,98847.25
2022-11-15T21:29:38.718Z,98849.84
2022-11-15T21:32:08.719Z,98846.69
2022-11-15T21:34:37.312Z,98833.63
2022-11-15T21:37:06.881Z,98834.59
2022-11-15T21:39:35.310Z,98831.00
2022-11-15T21:42:03.915Z,98826.78
2022-11-15T21:44:33.754Z,98831.09
2022-11-15T21:47:02.122Z,98835.38
2022-11-15T21:49:30.666Z,98823.34
2022-11-15T21:51:59.030Z,98822.50
2022-11-15T21:54:27.497Z,98815.56
2022-11-15T21:56:56.054Z,98827.75
2022-11-15T21:59:24.500Z,98825.16
2022-11-15T22:02:12.174Z,98827.72
2022-11-15T22:04:40.552Z,98823.47
2022-11-15T22:07:09.156Z,98820.81
2022-11-15T22:09:37.666Z,98810.53
2022-11-15T22:12:06.289Z,98814.00
2022-11-15T22:14:34.588Z,98806.19
2022-11-15T22:17:04.669Z,98808.72
2022-11-15T22:19:33.200Z,98810.44
2022-11-15T22:22:01.803Z,98806.19
2022-11-15T22:24:30.520Z,98799.13
2022-11-15T22:26:59.255Z,98793.13
2022-11-15T22:29:30.982Z,98796.53
2022-11-15T22:31:59.976Z,98781.19
2022-11-15T22:34:30.018Z,98787.94
2022-11-15T22:37:19.961Z,98788.78
2022-11-15T22:39:47.322Z,98789.69
2022-11-15T22:42:20.708Z,98787.22
2022-11-15T22:44:51.958Z,98782.00
2022-11-15T22:47:20.555Z,98780.34
2022-11-15T22:49:51.248Z,98783.69
2022-11-15T22:52:20.163Z,98791.44
2022-11-15T22:54:48.691Z,98783.69
2022-11-15T22:57:17.242Z,98784.78
2022-11-15T22:59:45.921Z,98782.13
2022-11-15T23:02:14.536Z,98781.19
2022-11-15T23:04:43.108Z,98782.84
2022-11-15T23:07:13.222Z,98773.50
2022-11-15T23:09:41.899Z,98771.78
2022-11-15T23:12:30.970Z,98774.50
2022-11-15T23:14:59.567Z,98774.72
2022-11-15T23:17:28.129Z,98768.84
2022-11-15T23:19:56.648Z,98771.44
2022-11-15T23:22:44.214Z,98770.69
2022-11-15T23:25:12.786Z,98760.50
2022-11-15T23:27:41.363Z,98763.22
2022-11-15T23:30:28.830Z,98760.78
2022-11-15T23:33:15.193Z,98761.63
2022-11-15T23:35:43.814Z,98754.84
2022-11-15T23:38:13.824Z,98756.66
2022-11-15T23:40:42.592Z,98753.50
2022-11-15T23:43:11.238Z,98753.28
2022-11-15T23:45:39.851Z,98751.78
2022-11-15T23:48:08.555Z,98752.09
2022-11-15T23:50:38.125Z,98747.00
2022-11-15T23:53:07.385Z,98743.59
2022-11-15T23:55:37.424Z,98745.47
2022-11-15T23:58:06.089Z,98748.31
